Time;durP1;ratioP1;P1;durP2;ratioP2;P2;SDS_P1;SDS_P2;PMS_P1;PMS_P2;Temp;Humidity;BMP_temperature;BMP_pressure;BME280_temperature;BME280_humidity;BME280_pressure;Samples;Min_cycle;Max_cycle;Signal;HPM_P1;HPM_P2
2022/11/09 00:07:04;;;;;;;10.73;7.60;;;;;;;21.78;60.79;100811.97;21001927;28;20052;-74
2022/11/09 00:17:04;;;;;;;15.77;8.80;;;;;;;21.78;60.71;100809.31;21002705;28;20613;-74
2022/11/09 00:27:04;;;;;;;13.02;8.63;;;;;;;21.74;60.40;100807.88;20984708;28;20041;-73
2022/11/09 00:37:06;;;;;;;11.82;8.18;;;;;;;21.72;60.43;100807.97;20995909;28;20414;-72
2022/11/09 00:47:06;;;;;;;10.65;7.55;;;;;;;21.70;60.39;100796.72;20990809;28;20036;-73
2022/11/09 00:57:07;;;;;;;12.02;7.78;;;;;;;21.67;60.58;100789.00;20999103;28;20395;-74
2022/11/09 01:07:07;;;;;;;12.65;8.32;;;;;;;21.66;60.25;100797.03;20995397;28;20036;-74
2022/11/09 01:17:07;;;;;;;10.85;7.80;;;;;;;21.64;60.24;100791.03;20988792;28;20051;-74
2022/11/09 01:27:08;;;;;;;11.25;7.63;;;;;;;21.59;60.10;100779.03;21001017;28;21511;-73
2022/11/09 01:37:08;;;;;;;11.07;7.45;;;;;;;21.60;60.36;100782.50;20999149;28;20041;-73
2022/11/09 01:47:22;;;;;;;11.60;7.38;;;;;;;21.55;60.24;100771.44;20981848;28;20043;-73
2022/11/09 01:57:31;;;;;;;9.32;6.68;;;;;;;21.55;60.41;100766.16;20986385;28;20385;-73
2022/11/09 02:07:32;;;;;;;10.35;7.05;;;;;;;21.55;60.19;100759.09;20984323;28;20518;-73
2022/11/09 02:17:33;;;;;;;9.80;7.07;;;;;;;21.52;60.40;100754.06;20988512;28;20075;-73
2022/11/09 02:27:35;;;;;;;9.80;7.10;;;;;;;21.50;59.70;100747.22;20986372;28;20040;-73
2022/11/09 02:37:57;;;;;;;10.48;6.95;;;;;;;21.47;60.04;100737.75;20983062;28;20048;-73
2022/11/09 02:47:57;;;;;;;7.95;5.82;;;;;;;21.45;60.15;100734.38;20985937;28;20097;-73
2022/11/09 02:57:57;;;;;;;9.45;6.70;;;;;;;21.43;59.78;100744.19;20980046;28;20044;-73
2022/11/09 03:08:01;;;;;;;9.05;6.88;;;;;;;21.40;60.14;100736.53;20986567;28;20081;-73
2022/11/09 03:18:01;;;;;;;9.23;6.30;;;;;;;21.39;59.94;100745.38;20981924;28;20058;-73
2022/11/09 03:28:04;;;;;;;9.35;6.28;;;;;;;21.38;59.61;100751.59;20983637;28;20040;-74
2022/11/09 03:38:05;;;;;;;7.07;5.40;;;;;;;21.37;60.09;100744.63;20992016;28;20036;-73
2022/11/09 03:48:05;;;;;;;9.60;6.67;;;;;;;21.37;59.90;100749.91;21003554;28;20036;-74
2022/11/09 03:58:08;;;;;;;7.90;5.95;;;;;;;21.34;59.85;100744.88;20999834;28;20342;-73
2022/11/09 04:08:09;;;;;;;;;;;;;;;21.37;59.93;100739.38;21001950;28;20045;-73
2022/11/09 04:18:12;;;;;;;7.15;5.40;;;;;;;21.32;59.82;100736.22;20993736;28;19924;-73
2022/11/09 04:28:13;;;;;;;8.55;5.18;;;;;;;21.31;60.08;100727.47;20995490;28;20094;-73
2022/11/09 04:38:14;;;;;;;7.32;5.78;;;;;;;21.31;59.79;100727.47;20996197;28;20511;-73
2022/11/09 04:48:15;;;;;;;8.02;5.63;;;;;;;21.27;59.78;100723.38;20982322;28;20089;-73
2022/11/09 04:58:15;;;;;;;6.43;4.97;;;;;;;21.32;60.38;100737.06;20978690;28;20061;-73
2022/11/09 05:08:15;;;;;;;7.20;4.95;;;;;;;21.34;60.65;100735.16;21002667;27;20051;-74
2022/11/09 05:18:17;;;;;;;10.93;4.55;;;;;;;21.42;61.07;100734.59;20983809;28;20047;-73
2022/11/09 05:28:23;;;;;;;9.57;5.18;;;;;;;21.50;60.93;100744.59;20983287;28;20904;-75
2022/11/09 05:38:24;;;;;;;7.55;5.13;;;;;;;21.58;62.32;100739.59;21035284;28;20055;-75
2022/11/09 05:48:24;;;;;;;10.20;4.93;;;;;;;21.65;61.83;100746.13;20996605;28;20387;-76
2022/11/09 05:58:25;;;;;;;11.20;5.22;;;;;;;21.69;62.08;100742.31;20982138;28;20040;-76
2022/11/09 06:08:25;;;;;;;11.80;6.20;;;;;;;21.64;59.50;100747.09;20992089;28;20047;-77
2022/11/09 06:18:28;;;;;;;13.40;6.18;;;;;;;21.66;59.70;100758.34;20990496;27;20116;-77
2022/11/09 06:28:29;;;;;;;13.02;5.75;;;;;;;21.71;59.64;100766.75;20986360;28;20048;-77
2022/11/09 06:38:38;;;;;;;11.32;5.30;;;;;;;21.76;59.58;100771.69;20997260;28;20151;-76
2022/11/09 06:48:39;;;;;;;8.90;5.63;;;;;;;21.79;59.27;100767.97;20980597;28;20079;-79
2022/11/09 06:58:39;;;;;;;15.57;5.18;;;;;;;21.83;59.73;100767.63;20986125;28;20044;-80
2022/11/09 07:08:40;;;;;;;9.57;5.07;;;;;;;21.88;59.60;100769.94;20989356;28;20080;-78
2022/11/09 07:18:45;;;;;;;9.35;5.22;;;;;;;21.89;59.74;100754.00;20975489;28;20541;-76
2022/11/09 07:28:45;;;;;;;8.90;5.15;;;;;;;21.92;59.10;100760.84;20990610;28;20173;-76
2022/11/09 07:38:46;;;;;;;8.55;5.10;;;;;;;22.00;60.26;100762.91;21009246;28;20099;-76
2022/11/09 07:48:46;;;;;;;8.98;4.70;;;;;;;22.03;60.23;100755.63;20994344;28;20047;-75
2022/11/09 07:58:49;;;;;;;7.00;4.95;;;;;;;22.07;60.32;100749.16;21000057;28;20405;-76
2022/11/09 08:08:49;;;;;;;8.30;4.53;;;;;;;22.09;60.16;100750.81;21002071;28;20524;-76
2022/11/09 08:18:50;;;;;;;6.97;4.60;;;;;;;22.10;60.50;100747.25;20987695;28;20053;-76
2022/11/09 08:28:51;;;;;;;6.38;4.20;;;;;;;22.11;60.21;100741.00;20993245;28;20135;-77
2022/11/09 08:38:51;;;;;;;7.07;5.13;;;;;;;22.13;60.65;100747.84;20984051;28;20074;-77
2022/11/09 08:48:52;;;;;;;7.93;5.60;;;;;;;22.13;60.26;100736.44;20989806;28;20525;-77
2022/11/09 08:58:52;;;;;;;8.65;5.65;;;;;;;22.11;60.22;100739.22;20972228;28;20036;-76
2022/11/09 09:08:52;;;;;;;11.48;6.10;;;;;;;22.07;59.73;100738.59;20994030;28;20425;-78
2022/11/09 09:18:53;;;;;;;10.25;5.97;;;;;;;22.04;58.83;100745.91;20987740;28;20036;-77
2022/11/09 09:28:53;;;;;;;9.23;5.15;;;;;;;22.04;58.55;100759.09;20995186;28;20036;-78
2022/11/09 09:38:54;;;;;;;9.75;6.20;;;;;;;22.00;58.60;100742.66;21000262;28;20101;-76
2022/11/09 09:49:06;;;;;;;8.82;5.25;;;;;;;21.97;58.84;100731.50;21021185;28;20037;-77
2022/11/09 09:59:18;;;;;;;9.80;5.60;;;;;;;21.91;58.73;100720.47;21001026;27;20040;-77
2022/11/09 10:09:38;;;;;;;8.17;5.43;;;;;;;21.86;58.93;100711.19;20987948;28;20056;-79
2022/11/09 10:19:45;;;;;;;9.73;5.93;;;;;;;21.82;59.19;100697.41;20992286;28;20132;-77
2022/11/09 10:29:48;;;;;;;8.80;5.97;;;;;;;21.80;58.92;100701.13;21001602;28;20657;-78
2022/11/09 10:40:17;;;;;;;8.23;5.93;;;;;;;21.78;58.79;100701.25;21011421;28;20048;-78
2022/11/09 10:50:45;;;;;;;10.75;6.68;;;;;;;21.76;58.67;100689.97;21022683;28;20040;-77
2022/11/09 11:01:11;;;;;;;9.85;6.45;;;;;;;21.72;58.75;100680.63;21013272;28;20041;-77
2022/11/09 11:11:17;;;;;;;11.15;6.70;;;;;;;21.70;58.62;100670.22;21010153;28;21145;-77
2022/11/09 11:21:20;;;;;;;9.95;6.38;;;;;;;21.68;58.49;100666.84;21021431;28;20536;-77
2022/11/09 11:31:21;;;;;;;10.90;6.90;;;;;;;21.68;58.14;100666.84;21002334;28;20029;-78
2022/11/09 11:41:24;;;;;;;9.00;5.95;;;;;;;21.64;58.50;100667.19;21019426;28;20079;-78
2022/11/09 11:51:50;;;;;;;10.48;6.63;;;;;;;21.64;58.45;100654.00;21018942;28;20040;-78
2022/11/09 12:02:08;;;;;;;10.38;7.07;;;;;;;21.63;58.03;100653.19;21040468;27;20047;-78
2022/11/09 12:12:11;;;;;;;9.88;7.10;;;;;;;21.59;57.98;100644.66;21000482;28;20117;-78
2022/11/09 12:22:21;;;;;;;11.68;7.82;;;;;;;21.60;58.00;100640.22;20994623;28;20605;-76
2022/11/09 12:32:56;;;;;;;10.18;6.85;;;;;;;21.58;57.69;100640.34;21001145;28;20371;-78
2022/11/09 12:43:18;;;;;;;10.85;7.25;;;;;;;21.56;57.64;100636.09;20995402;28;20032;-78
2022/11/09 12:53:20;;;;;;;10.50;7.50;;;;;;;21.56;57.67;100629.06;20993996;28;20037;-76
2022/11/09 13:03:29;;;;;;;11.80;7.07;;;;;;;21.56;57.77;100615.88;20995678;28;20056;-76
2022/11/09 13:13:30;;;;;;;11.13;7.45;;;;;;;21.53;57.44;100624.00;20989526;28;20056;-77
2022/11/09 13:23:36;;;;;;;10.65;7.45;;;;;;;21.52;57.53;100616.19;20980318;28;20036;-77
2022/11/09 13:33:38;;;;;;;10.73;7.70;;;;;;;21.52;57.58;100608.28;20986602;28;20633;-77
2022/11/09 13:43:39;;;;;;;10.83;7.63;;;;;;;21.52;57.01;100616.19;20988198;28;20036;-77
2022/11/09 13:54:24;;;;;;;13.10;7.70;;;;;;;21.51;57.27;100612.72;20967005;28;20086;-78
2022/11/09 14:04:28;;;;;;;16.88;7.82;;;;;;;21.51;57.19;100598.72;20959781;28;20130;-79
2022/11/09 14:14:56;;;;;;;12.98;7.72;;;;;;;21.50;57.37;100613.69;20992255;28;20151;-79
2022/11/09 14:24:57;;;;;;;16.08;7.95;;;;;;;21.53;57.28;100612.59;20978055;28;20043;-80
2022/11/09 14:35:19;;;;;;;19.63;9.00;;;;;;;21.52;56.83;100603.03;20984769;27;20124;-79
2022/11/09 14:45:20;;;;;;;18.50;8.70;;;;;;;21.49;56.99;100603.28;20999798;27;20044;-80
2022/11/09 14:55:23;;;;;;;16.02;8.32;;;;;;;21.48;57.27;100612.13;20984970;28;20045;-75
2022/11/09 15:05:35;;;;;;;;;;;;;;;21.50;57.25;100618.13;20974188;28;20042;-76
2022/11/09 15:15:37;;;;;;;16.23;8.00;;;;;;;21.47;57.06;100611.28;20977136;28;19920;-75
2022/11/09 15:25:37;;;;;;;16.97;8.67;;;;;;;21.45;57.27;100610.56;20992583;28;20059;-75
2022/11/09 15:35:50;;;;;;;17.63;9.02;;;;;;;21.45;57.22;100615.84;21023782;27;20044;-76
2022/11/09 15:45:51;;;;;;;14.32;9.30;;;;;;;21.45;57.20;100613.19;20993649;28;20053;-76
2022/11/09 15:55:51;;;;;;;14.77;8.33;;;;;;;21.42;57.02;100619.53;21007627;28;20056;-76
2022/11/09 16:05:52;;;;;;;14.50;9.00;;;;;;;21.41;57.17;100612.59;21004872;28;20339;-76
2022/11/09 16:16:01;;;;;;;12.75;8.13;;;;;;;21.40;57.53;100612.72;20997395;28;20044;-76
2022/11/09 16:26:10;;;;;;;11.90;7.85;;;;;;;21.38;56.93;100615.44;21012254;28;20036;-76
2022/11/09 16:36:15;;;;;;;13.98;9.02;;;;;;;21.36;57.35;100619.16;21015828;28;20049;-76
2022/11/09 16:46:23;;;;;;;15.75;9.07;;;;;;;21.33;57.11;100612.31;21003953;28;20121;-75
2022/11/09 16:56:24;;;;;;;17.73;9.25;;;;;;;21.31;57.20;100613.38;20963233;28;20502;-75
2022/11/09 17:06:24;;;;;;;17.25;8.45;;;;;;;21.34;57.57;100616.63;20968349;28;20415;-76
2022/11/09 17:16:25;;;;;;;18.63;9.70;;;;;;;21.38;58.31;100615.44;20941389;28;20135;-78
2022/11/09 17:26:26;;;;;;;19.10;9.70;;;;;;;21.46;58.79;100620.16;20950781;28;20064;-76
2022/11/09 17:36:26;;;;;;;15.02;9.20;;;;;;;21.46;58.76;100621.94;20993002;28;20048;-76
2022/11/09 17:46:26;;;;;;;15.82;8.95;;;;;;;21.49;58.64;100621.72;20962713;28;20040;-74
2022/11/09 17:56:27;;;;;;;14.13;9.18;;;;;;;21.54;58.60;100620.38;20900406;28;20036;-74
2022/11/09 18:06:28;;;;;;;16.63;9.68;;;;;;;21.55;58.66;100621.25;20925318;28;20520;-78
2022/11/09 18:16:29;;;;;;;13.90;8.93;;;;;;;21.53;59.04;100608.19;20994026;28;21002;-78
2022/11/09 18:26:31;;;;;;;19.58;9.65;;;;;;;21.57;59.27;100612.31;20981754;28;20495;-75
2022/11/09 18:36:33;;;;;;;19.70;9.40;;;;;;;21.59;59.65;100614.81;20966461;28;20036;-74
2022/11/09 18:46:34;;;;;;;23.13;11.15;;;;;;;21.64;59.89;100604.78;20979034;28;20071;-73
2022/11/09 18:56:34;;;;;;;25.58;12.10;;;;;;;21.70;61.54;100606.09;20978448;28;20066;-72
2022/11/09 19:06:35;;;;;;;24.95;13.85;;;;;;;21.77;63.00;100606.47;20986201;28;20066;-74
2022/11/09 19:16:36;;;;;;;23.58;13.35;;;;;;;21.78;63.33;100608.16;20991697;28;20047;-74
2022/11/09 19:26:36;;;;;;;50.05;17.15;;;;;;;21.79;63.78;100613.31;21000114;28;20044;-74
2022/11/09 19:36:40;;;;;;;37.15;15.98;;;;;;;21.83;63.64;100612.09;20978267;28;20076;-76
2022/11/09 19:46:41;;;;;;;29.83;14.68;;;;;;;21.85;63.49;100625.16;20994350;28;20040;-74
2022/11/09 19:56:42;;;;;;;32.60;14.98;;;;;;;21.86;63.43;100611.03;20994861;28;20036;-75
2022/11/09 20:06:42;;;;;;;27.23;13.52;;;;;;;21.85;63.23;100619.88;20993791;27;20048;-76
2022/11/09 20:16:43;;;;;;;31.35;13.88;;;;;;;21.85;62.63;100620.75;20981267;27;20048;-74
2022/11/09 20:26:44;;;;;;;26.35;13.35;;;;;;;21.83;61.50;100613.91;20967558;28;20028;-74
2022/11/09 20:36:45;;;;;;;27.52;13.75;;;;;;;21.80;61.63;100614.13;20996016;28;20425;-72
2022/11/09 20:46:46;;;;;;;22.60;12.35;;;;;;;21.78;61.57;100605.53;21005388;28;20047;-72
2022/11/09 20:56:46;;;;;;;23.45;12.75;;;;;;;21.74;61.71;100620.75;20998605;28;21586;-75
2022/11/09 21:06:47;;;;;;;22.13;12.20;;;;;;;21.70;61.97;100612.22;21017725;28;20066;-73
2022/11/09 21:16:47;;;;;;;23.75;12.70;;;;;;;21.71;61.74;100608.59;21037294;28;20036;-74
2022/11/09 21:37:06;;;;;;;24.80;12.45;;;;;;;21.68;61.83;100608.00;21008436;27;22003;-73
2022/11/09 21:47:10;;;;;;;20.40;11.75;;;;;;;21.66;61.48;100609.94;20997608;28;20545;-72
2022/11/09 21:57:10;;;;;;;20.25;11.57;;;;;;;21.65;61.32;100605.63;21012965;28;21372;-73
2022/11/09 22:07:11;;;;;;;21.17;11.93;;;;;;;21.64;61.32;100604.78;21001167;28;20036;-73
2022/11/09 22:17:13;;;;;;;20.02;11.20;;;;;;;21.63;61.17;100589.06;20996070;28;20047;-73
2022/11/09 22:27:14;;;;;;;19.05;10.25;;;;;;;21.64;61.40;100593.38;20987445;28;20052;-74
2022/11/09 22:37:38;;;;;;;16.30;10.93;;;;;;;21.69;61.39;100600.00;21001236;28;20044;-77
2022/11/09 22:47:39;;;;;;;23.15;11.23;;;;;;;21.67;61.58;100593.16;20950594;28;20040;-77
2022/11/09 22:57:40;;;;;;;17.55;10.38;;;;;;;21.66;61.77;100594.13;21002785;28;20055;-77
2022/11/09 23:07:40;;;;;;;17.47;10.57;;;;;;;21.65;61.43;100593.25;21007950;28;20043;-77
2022/11/09 23:28:00;;;;;;;19.75;10.95;;;;;;;21.64;61.49;100577.56;20994399;28;20036;-78
2022/11/09 23:38:03;;;;;;;15.52;9.90;;;;;;;21.65;61.36;100579.25;20967317;28;21721;-77
2022/11/09 23:48:04;;;;;;;18.38;10.25;;;;;;;21.66;61.33;100586.22;21004141;28;20485;-76
2022/11/09 23:58:06;;;;;;;16.93;10.70;;;;;;;21.63;61.27;100581.16;21000623;28;20103;-76
